sensor_id;sensor_type;location;lat;lon;timestamp;temperature;humidity
20726;DHT22;10524;48.132;8.518;2023-02-18T00:02:04;7.50;99.90
20726;DHT22;10524;48.132;8.518;2023-02-18T00:04:31;7.60;99.90
20726;DHT22;10524;48.132;8.518;2023-02-18T00:06:57;7.60;99.90
20726;DHT22;10524;48.132;8.518;2023-02-18T00:09:22;7.50;99.90
20726;DHT22;10524;48.132;8.518;2023-02-18T00:11:48;7.50;99.90
20726;DHT22;10524;48.132;8.518;2023-02-18T00:14:14;7.50;99.90
20726;DHT22;10524;48.132;8.518;2023-02-18T00:16:42;7.40;99.90
20726;DHT22;10524;48.132;8.518;2023-02-18T00:19:11;7.30;99.90
20726;DHT22;10524;48.132;8.518;2023-02-18T00:21:36;7.20;99.90
20726;DHT22;10524;48.132;8.518;2023-02-18T00:24:04;7.10;99.90
20726;DHT22;10524;48.132;8.518;2023-02-18T00:26:30;7.20;99.90
20726;DHT22;10524;48.132;8.518;2023-02-18T00:28:55;7.20;99.90
20726;DHT22;10524;48.132;8.518;2023-02-18T00:31:24;7.20;99.90
20726;DHT22;10524;48.132;8.518;2023-02-18T00:33:50;7.20;99.90
20726;DHT22;10524;48.132;8.518;2023-02-18T00:36:17;7.20;99.90
20726;DHT22;10524;48.132;8.518;2023-02-18T00:38:48;7.10;99.90
20726;DHT22;10524;48.132;8.518;2023-02-18T00:41:15;7.00;99.90
20726;DHT22;10524;48.132;8.518;2023-02-18T00:43:41;7.20;99.90
20726;DHT22;10524;48.132;8.518;2023-02-18T00:46:07;7.30;99.90
20726;DHT22;10524;48.132;8.518;2023-02-18T00:48:34;7.30;99.90
20726;DHT22;10524;48.132;8.518;2023-02-18T00:51:00;7.20;99.90
20726;DHT22;10524;48.132;8.518;2023-02-18T00:53:27;7.30;99.90
20726;DHT22;10524;48.132;8.518;2023-02-18T00:55:53;7.30;99.90
20726;DHT22;10524;48.132;8.518;2023-02-18T00:58:19;7.40;99.90
20726;DHT22;10524;48.132;8.518;2023-02-18T01:00:45;7.60;99.90
20726;DHT22;10524;48.132;8.518;2023-02-18T01:03:13;7.60;99.90
20726;DHT22;10524;48.132;8.518;2023-02-18T01:05:39;7.60;99.90
20726;DHT22;10524;48.132;8.518;2023-02-18T01:08:06;7.60;99.90
20726;DHT22;10524;48.132;8.518;2023-02-18T01:10:33;7.70;99.90
20726;DHT22;10524;48.132;8.518;2023-02-18T01:13:00;7.80;99.90
20726;DHT22;10524;48.132;8.518;2023-02-18T01:15:26;7.90;99.90
20726;DHT22;10524;48.132;8.518;2023-02-18T01:17:52;8.00;99.90
20726;DHT22;10524;48.132;8.518;2023-02-18T01:20:18;8.00;99.90
20726;DHT22;10524;48.132;8.518;2023-02-18T01:22:45;8.10;99.90
20726;DHT22;10524;48.132;8.518;2023-02-18T01:25:11;8.10;99.90
20726;DHT22;10524;48.132;8.518;2023-02-18T01:27:36;8.10;99.90
20726;DHT22;10524;48.132;8.518;2023-02-18T01:30:07;8.10;99.90
20726;DHT22;10524;48.132;8.518;2023-02-18T01:32:32;8.00;99.90
20726;DHT22;10524;48.132;8.518;2023-02-18T01:35:03;8.20;99.90
20726;DHT22;10524;48.132;8.518;2023-02-18T01:37:29;8.30;99.90
20726;DHT22;10524;48.132;8.518;2023-02-18T01:39:55;8.30;99.90
20726;DHT22;10524;48.132;8.518;2023-02-18T01:42:23;8.30;99.90
20726;DHT22;10524;48.132;8.518;2023-02-18T01:44:50;8.30;99.90
20726;DHT22;10524;48.132;8.518;2023-02-18T01:47:16;8.20;99.90
20726;DHT22;10524;48.132;8.518;2023-02-18T01:49:44;8.20;99.90
20726;DHT22;10524;48.132;8.518;2023-02-18T01:52:20;8.20;99.90
20726;DHT22;10524;48.132;8.518;2023-02-18T01:54:49;8.20;99.90
20726;DHT22;10524;48.132;8.518;2023-02-18T01:57:31;8.10;99.90
20726;DHT22;10524;48.132;8.518;2023-02-18T02:00:07;8.10;99.90
20726;DHT22;10524;48.132;8.518;2023-02-18T02:02:39;8.10;99.90
20726;DHT22;10524;48.132;8.518;2023-02-18T02:05:06;8.20;99.90
20726;DHT22;10524;48.132;8.518;2023-02-18T02:07:32;8.20;99.90
20726;DHT22;10524;48.132;8.518;2023-02-18T02:09:58;8.20;99.90
20726;DHT22;10524;48.132;8.518;2023-02-18T02:12:29;8.30;99.90
20726;DHT22;10524;48.132;8.518;2023-02-18T02:26:52;8.40;99.90
20726;DHT22;10524;48.132;8.518;2023-02-18T02:29:35;8.50;99.90
20726;DHT22;10524;48.132;8.518;2023-02-18T02:35:21;8.60;99.90
20726;DHT22;10524;48.132;8.518;2023-02-18T02:40:55;8.60;99.90
20726;DHT22;10524;48.132;8.518;2023-02-18T02:46:30;8.60;99.90
20726;DHT22;10524;48.132;8.518;2023-02-18T02:48:59;8.60;99.90
20726;DHT22;10524;48.132;8.518;2023-02-18T02:51:39;8.50;99.90
20726;DHT22;10524;48.132;8.518;2023-02-18T02:54:26;8.50;99.90
20726;DHT22;10524;48.132;8.518;2023-02-18T02:59:41;8.60;99.90
20726;DHT22;10524;48.132;8.518;2023-02-18T03:16:00;8.70;99.90
20726;DHT22;10524;48.132;8.518;2023-02-18T03:18:40;8.70;99.90
20726;DHT22;10524;48.132;8.518;2023-02-18T03:21:16;8.70;99.90
20726;DHT22;10524;48.132;8.518;2023-02-18T03:23:51;8.70;99.90
20726;DHT22;10524;48.132;8.518;2023-02-18T03:26:18;8.70;99.90
20726;DHT22;10524;48.132;8.518;2023-02-18T03:28:48;8.70;99.90
20726;DHT22;10524;48.132;8.518;2023-02-18T03:31:18;8.70;99.90
20726;DHT22;10524;48.132;8.518;2023-02-18T03:33:49;8.70;99.90
20726;DHT22;10524;48.132;8.518;2023-02-18T03:36:17;8.70;99.90
20726;DHT22;10524;48.132;8.518;2023-02-18T03:38:53;8.70;99.90
20726;DHT22;10524;48.132;8.518;2023-02-18T03:41:21;8.70;99.90
20726;DHT22;10524;48.132;8.518;2023-02-18T03:44:08;8.80;99.90
20726;DHT22;10524;48.132;8.518;2023-02-18T03:46:35;8.70;99.90
20726;DHT22;10524;48.132;8.518;2023-02-18T03:49:01;8.60;99.90
20726;DHT22;10524;48.132;8.518;2023-02-18T03:51:27;8.50;99.90
20726;DHT22;10524;48.132;8.518;2023-02-18T03:53:53;8.40;99.90
20726;DHT22;10524;48.132;8.518;2023-02-18T03:56:19;8.30;99.90
20726;DHT22;10524;48.132;8.518;2023-02-18T03:58:45;8.20;99.90
20726;DHT22;10524;48.132;8.518;2023-02-18T04:01:11;8.10;99.90
20726;DHT22;10524;48.132;8.518;2023-02-18T04:03:36;8.10;99.90
20726;DHT22;10524;48.132;8.518;2023-02-18T04:06:02;8.10;99.90
20726;DHT22;10524;48.132;8.518;2023-02-18T04:08:28;8.00;99.90
20726;DHT22;10524;48.132;8.518;2023-02-18T04:10:53;7.90;99.90
20726;DHT22;10524;48.132;8.518;2023-02-18T04:13:19;7.90;99.90
20726;DHT22;10524;48.132;8.518;2023-02-18T04:15:45;7.80;99.90
20726;DHT22;10524;48.132;8.518;2023-02-18T04:18:10;7.80;99.90
20726;DHT22;10524;48.132;8.518;2023-02-18T04:20:36;7.90;99.90
20726;DHT22;10524;48.132;8.518;2023-02-18T04:23:03;7.90;99.90
20726;DHT22;10524;48.132;8.518;2023-02-18T04:25:28;8.10;99.90
20726;DHT22;10524;48.132;8.518;2023-02-18T04:27:54;8.10;99.90
20726;DHT22;10524;48.132;8.518;2023-02-18T04:30:20;8.00;99.90
20726;DHT22;10524;48.132;8.518;2023-02-18T04:32:45;8.10;99.90
20726;DHT22;10524;48.132;8.518;2023-02-18T04:35:11;8.10;99.90
20726;DHT22;10524;48.132;8.518;2023-02-18T04:37:37;8.10;99.90
20726;DHT22;10524;48.132;8.518;2023-02-18T04:40:03;8.10;99.90
20726;DHT22;10524;48.132;8.518;2023-02-18T04:42:29;8.10;99.90
20726;DHT22;10524;48.132;8.518;2023-02-18T04:44:54;8.30;99.90
20726;DHT22;10524;48.132;8.518;2023-02-18T04:47:20;8.30;99.90
20726;DHT22;10524;48.132;8.518;2023-02-18T04:49:45;8.30;99.90
20726;DHT22;10524;48.132;8.518;2023-02-18T04:52:11;8.40;99.90
20726;DHT22;10524;48.132;8.518;2023-02-18T04:54:37;8.40;99.90
20726;DHT22;10524;48.132;8.518;2023-02-18T04:57:02;8.40;99.90
20726;DHT22;10524;48.132;8.518;2023-02-18T04:59:28;8.50;99.90
20726;DHT22;10524;48.132;8.518;2023-02-18T05:01:54;8.40;99.90
20726;DHT22;10524;48.132;8.518;2023-02-18T05:04:19;8.50;99.90
20726;DHT22;10524;48.132;8.518;2023-02-18T05:06:45;8.50;99.90
20726;DHT22;10524;48.132;8.518;2023-02-18T05:09:11;8.50;99.90
20726;DHT22;10524;48.132;8.518;2023-02-18T05:11:36;8.60;99.90
20726;DHT22;10524;48.132;8.518;2023-02-18T05:14:02;8.60;99.90
20726;DHT22;10524;48.132;8.518;2023-02-18T05:16:28;8.70;99.90
20726;DHT22;10524;48.132;8.518;2023-02-18T05:18:53;8.80;99.90
20726;DHT22;10524;48.132;8.518;2023-02-18T05:21:19;8.90;99.90
20726;DHT22;10524;48.132;8.518;2023-02-18T05:23:45;8.90;99.90
20726;DHT22;10524;48.132;8.518;2023-02-18T05:26:10;8.80;99.90
20726;DHT22;10524;48.132;8.518;2023-02-18T05:28:36;8.80;99.90
20726;DHT22;10524;48.132;8.518;2023-02-18T05:31:02;8.80;99.90
20726;DHT22;10524;48.132;8.518;2023-02-18T05:33:27;8.80;99.90
20726;DHT22;10524;48.132;8.518;2023-02-18T05:35:53;8.70;99.90
20726;DHT22;10524;48.132;8.518;2023-02-18T05:38:19;8.70;99.90
20726;DHT22;10524;48.132;8.518;2023-02-18T05:40:45;8.70;99.90
20726;DHT22;10524;48.132;8.518;2023-02-18T05:43:11;8.70;99.90
20726;DHT22;10524;48.132;8.518;2023-02-18T05:45:36;8.70;99.90
20726;DHT22;10524;48.132;8.518;2023-02-18T05:48:02;8.70;99.90
20726;DHT22;10524;48.132;8.518;2023-02-18T05:50:28;8.70;99.90
20726;DHT22;10524;48.132;8.518;2023-02-18T05:52:54;8.70;99.90
20726;DHT22;10524;48.132;8.518;2023-02-18T05:55:19;8.70;99.90
20726;DHT22;10524;48.132;8.518;2023-02-18T05:57:45;8.70;99.90
20726;DHT22;10524;48.132;8.518;2023-02-18T06:00:11;8.60;99.90
20726;DHT22;10524;48.132;8.518;2023-02-18T06:02:37;8.60;99.90
20726;DHT22;10524;48.132;8.518;2023-02-18T06:05:03;8.60;99.90
20726;DHT22;10524;48.132;8.518;2023-02-18T06:07:29;8.60;99.90
20726;DHT22;10524;48.132;8.518;2023-02-18T06:09:55;8.60;99.90
20726;DHT22;10524;48.132;8.518;2023-02-18T06:12:21;8.60;99.90
20726;DHT22;10524;48.132;8.518;2023-02-18T06:14:46;8.60;99.90
20726;DHT22;10524;48.132;8.518;2023-02-18T06:17:13;8.50;99.90
20726;DHT22;10524;48.132;8.518;2023-02-18T06:19:39;8.50;99.90
20726;DHT22;10524;48.132;8.518;2023-02-18T06:22:05;8.40;99.90
20726;DHT22;10524;48.132;8.518;2023-02-18T06:24:31;8.50;99.90
20726;DHT22;10524;48.132;8.518;2023-02-18T06:26:56;8.40;99.90
20726;DHT22;10524;48.132;8.518;2023-02-18T06:29:22;8.30;99.90
20726;DHT22;10524;48.132;8.518;2023-02-18T06:31:48;8.30;99.90
20726;DHT22;10524;48.132;8.518;2023-02-18T06:34:14;8.40;99.90
20726;DHT22;10524;48.132;8.518;2023-02-18T06:36:40;8.40;99.90
20726;DHT22;10524;48.132;8.518;2023-02-18T06:39:06;8.40;99.90
20726;DHT22;10524;48.132;8.518;2023-02-18T06:41:32;8.40;99.90
20726;DHT22;10524;48.132;8.518;2023-02-18T06:43:58;8.40;99.90
20726;DHT22;10524;48.132;8.518;2023-02-18T06:46:23;8.30;99.90
20726;DHT22;10524;48.132;8.518;2023-02-18T06:48:49;8.20;99.90
20726;DHT22;10524;48.132;8.518;2023-02-18T06:51:14;8.30;99.90
20726;DHT22;10524;48.132;8.518;2023-02-18T06:53:41;8.20;99.90
20726;DHT22;10524;48.132;8.518;2023-02-18T06:56:08;8.20;99.90
20726;DHT22;10524;48.132;8.518;2023-02-18T06:58:34;8.30;99.90
20726;DHT22;10524;48.132;8.518;2023-02-18T07:00:59;8.40;99.90
20726;DHT22;10524;48.132;8.518;2023-02-18T07:03:25;8.50;99.90
20726;DHT22;10524;48.132;8.518;2023-02-18T07:05:51;8.50;99.90
20726;DHT22;10524;48.132;8.518;2023-02-18T07:08:17;8.60;99.90
20726;DHT22;10524;48.132;8.518;2023-02-18T07:10:43;8.60;99.90
20726;DHT22;10524;48.132;8.518;2023-02-18T07:13:08;8.60;99.90
20726;DHT22;10524;48.132;8.518;2023-02-18T07:15:34;8.70;99.90
20726;DHT22;10524;48.132;8.518;2023-02-18T07:18:00;8.70;99.90
20726;DHT22;10524;48.132;8.518;2023-02-18T07:20:26;8.80;99.90
20726;DHT22;10524;48.132;8.518;2023-02-18T07:22:52;8.90;99.90
20726;DHT22;10524;48.132;8.518;2023-02-18T07:25:18;9.00;99.90
20726;DHT22;10524;48.132;8.518;2023-02-18T07:27:44;9.00;99.90
20726;DHT22;10524;48.132;8.518;2023-02-18T07:30:10;9.10;99.90
20726;DHT22;10524;48.132;8.518;2023-02-18T07:32:35;9.30;99.90
20726;DHT22;10524;48.132;8.518;2023-02-18T07:35:03;9.30;99.90
20726;DHT22;10524;48.132;8.518;2023-02-18T07:37:28;9.40;99.90
20726;DHT22;10524;48.132;8.518;2023-02-18T07:39:54;9.50;99.90
20726;DHT22;10524;48.132;8.518;2023-02-18T07:42:20;9.60;99.90
20726;DHT22;10524;48.132;8.518;2023-02-18T07:44:45;9.70;99.90
20726;DHT22;10524;48.132;8.518;2023-02-18T07:47:15;9.80;99.90
20726;DHT22;10524;48.132;8.518;2023-02-18T07:49:44;10.00;99.90
20726;DHT22;10524;48.132;8.518;2023-02-18T07:52:11;10.00;99.90
20726;DHT22;10524;48.132;8.518;2023-02-18T07:54:37;10.10;99.90
20726;DHT22;10524;48.132;8.518;2023-02-18T07:57:03;10.20;99.90
20726;DHT22;10524;48.132;8.518;2023-02-18T07:59:29;10.30;99.90
20726;DHT22;10524;48.132;8.518;2023-02-18T08:01:54;10.30;99.90
20726;DHT22;10524;48.132;8.518;2023-02-18T08:04:20;10.30;99.90
20726;DHT22;10524;48.132;8.518;2023-02-18T08:06:47;10.40;99.90
20726;DHT22;10524;48.132;8.518;2023-02-18T08:09:14;10.50;99.90
20726;DHT22;10524;48.132;8.518;2023-02-18T08:11:40;10.50;99.90
20726;DHT22;10524;48.132;8.518;2023-02-18T08:14:06;10.50;99.90
20726;DHT22;10524;48.132;8.518;2023-02-18T08:16:32;10.60;99.90
20726;DHT22;10524;48.132;8.518;2023-02-18T08:18:59;10.70;99.90
20726;DHT22;10524;48.132;8.518;2023-02-18T08:21:26;10.70;99.90
20726;DHT22;10524;48.132;8.518;2023-02-18T08:23:52;10.80;99.90
20726;DHT22;10524;48.132;8.518;2023-02-18T08:26:18;10.80;99.90
20726;DHT22;10524;48.132;8.518;2023-02-18T08:28:45;10.90;99.90
20726;DHT22;10524;48.132;8.518;2023-02-18T08:31:21;10.70;99.90
20726;DHT22;10524;48.132;8.518;2023-02-18T08:33:47;10.80;99.90
20726;DHT22;10524;48.132;8.518;2023-02-18T08:36:13;10.90;99.90
20726;DHT22;10524;48.132;8.518;2023-02-18T08:38:39;10.90;99.90
20726;DHT22;10524;48.132;8.518;2023-02-18T08:41:06;11.00;99.90
20726;DHT22;10524;48.132;8.518;2023-02-18T08:43:32;11.10;99.90
20726;DHT22;10524;48.132;8.518;2023-02-18T08:45:58;11.30;99.90
20726;DHT22;10524;48.132;8.518;2023-02-18T08:48:24;11.20;99.90
20726;DHT22;10524;48.132;8.518;2023-02-18T08:50:50;11.30;99.90
20726;DHT22;10524;48.132;8.518;2023-02-18T08:53:17;11.30;99.90
20726;DHT22;10524;48.132;8.518;2023-02-18T08:55:43;11.30;99.90
20726;DHT22;10524;48.132;8.518;2023-02-18T08:58:09;11.50;99.90
20726;DHT22;10524;48.132;8.518;2023-02-18T09:00:36;11.60;99.90
20726;DHT22;10524;48.132;8.518;2023-02-18T09:03:02;11.50;99.90
20726;DHT22;10524;48.132;8.518;2023-02-18T09:05:27;11.20;99.90
20726;DHT22;10524;48.132;8.518;2023-02-18T09:07:53;11.20;99.90
20726;DHT22;10524;48.132;8.518;2023-02-18T09:10:19;11.20;99.90
20726;DHT22;10524;48.132;8.518;2023-02-18T09:12:44;11.20;99.90
20726;DHT22;10524;48.132;8.518;2023-02-18T09:15:10;11.30;99.90
20726;DHT22;10524;48.132;8.518;2023-02-18T09:17:36;11.40;99.90
20726;DHT22;10524;48.132;8.518;2023-02-18T09:20:02;11.40;99.90
20726;DHT22;10524;48.132;8.518;2023-02-18T09:22:28;11.30;99.90
20726;DHT22;10524;48.132;8.518;2023-02-18T09:24:54;11.40;99.90
20726;DHT22;10524;48.132;8.518;2023-02-18T09:27:20;11.30;99.90
20726;DHT22;10524;48.132;8.518;2023-02-18T09:29:46;11.20;99.90
20726;DHT22;10524;48.132;8.518;2023-02-18T09:32:12;11.30;99.90
20726;DHT22;10524;48.132;8.518;2023-02-18T09:34:38;11.50;99.90
20726;DHT22;10524;48.132;8.518;2023-02-18T09:37:04;11.60;99.90
20726;DHT22;10524;48.132;8.518;2023-02-18T09:39:29;11.50;99.90
20726;DHT22;10524;48.132;8.518;2023-02-18T09:41:58;11.40;99.90
20726;DHT22;10524;48.132;8.518;2023-02-18T09:44:37;11.30;99.90
20726;DHT22;10524;48.132;8.518;2023-02-18T09:50:07;11.60;99.90
20726;DHT22;10524;48.132;8.518;2023-02-18T09:52:35;11.50;99.90
20726;DHT22;10524;48.132;8.518;2023-02-18T09:55:23;11.40;99.90
20726;DHT22;10524;48.132;8.518;2023-02-18T09:57:52;11.70;99.90
20726;DHT22;10524;48.132;8.518;2023-02-18T10:00:31;11.90;99.90
20726;DHT22;10524;48.132;8.518;2023-02-18T10:03:03;12.20;99.90
20726;DHT22;10524;48.132;8.518;2023-02-18T10:05:31;12.50;99.90
20726;DHT22;10524;48.132;8.518;2023-02-18T10:08:06;12.00;99.90
20726;DHT22;10524;48.132;8.518;2023-02-18T10:10:42;11.90;99.90
20726;DHT22;10524;48.132;8.518;2023-02-18T10:13:20;12.10;99.90
20726;DHT22;10524;48.132;8.518;2023-02-18T10:15:46;12.10;99.90
20726;DHT22;10524;48.132;8.518;2023-02-18T10:18:41;11.90;99.90
20726;DHT22;10524;48.132;8.518;2023-02-18T10:23:39;11.70;99.90
20726;DHT22;10524;48.132;8.518;2023-02-18T10:26:11;11.60;99.90
20726;DHT22;10524;48.132;8.518;2023-02-18T10:28:39;11.40;99.90
20726;DHT22;10524;48.132;8.518;2023-02-18T10:31:07;11.70;99.90
20726;DHT22;10524;48.132;8.518;2023-02-18T10:36:35;12.10;99.90
20726;DHT22;10524;48.132;8.518;2023-02-18T10:50:39;12.30;99.90
20726;DHT22;10524;48.132;8.518;2023-02-18T10:55:50;12.80;99.90
20726;DHT22;10524;48.132;8.518;2023-02-18T10:58:34;12.50;99.90
20726;DHT22;10524;48.132;8.518;2023-02-18T11:01:03;12.80;99.90
20726;DHT22;10524;48.132;8.518;2023-02-18T11:06:16;12.90;99.90
20726;DHT22;10524;48.132;8.518;2023-02-18T11:08:45;13.10;99.90
20726;DHT22;10524;48.132;8.518;2023-02-18T11:11:19;13.10;99.90
20726;DHT22;10524;48.132;8.518;2023-02-18T11:13:52;13.30;99.90
20726;DHT22;10524;48.132;8.518;2023-02-18T11:16:24;13.60;99.90
20726;DHT22;10524;48.132;8.518;2023-02-18T11:19:00;13.60;99.90
20726;DHT22;10524;48.132;8.518;2023-02-18T11:21:35;13.30;99.90
20726;DHT22;10524;48.132;8.518;2023-02-18T11:24:19;13.20;99.90
20726;DHT22;10524;48.132;8.518;2023-02-18T11:26:45;13.30;99.90
20726;DHT22;10524;48.132;8.518;2023-02-18T11:29:23;13.10;99.90
20726;DHT22;10524;48.132;8.518;2023-02-18T11:31:51;13.40;99.90
20726;DHT22;10524;48.132;8.518;2023-02-18T11:34:23;13.50;99.90
20726;DHT22;10524;48.132;8.518;2023-02-18T11:36:52;14.20;99.90
20726;DHT22;10524;48.132;8.518;2023-02-18T11:39:22;15.50;99.90
20726;DHT22;10524;48.132;8.518;2023-02-18T11:41:55;16.60;99.90
20726;DHT22;10524;48.132;8.518;2023-02-18T11:45:03;18.00;99.90
20726;DHT22;10524;48.132;8.518;2023-02-18T11:47:35;19.20;99.90
20726;DHT22;10524;48.132;8.518;2023-02-18T11:52:51;19.20;99.90
20726;DHT22;10524;48.132;8.518;2023-02-18T11:55:20;20.40;99.90
20726;DHT22;10524;48.132;8.518;2023-02-18T11:57:56;19.70;99.90
20726;DHT22;10524;48.132;8.518;2023-02-18T12:00:39;19.60;99.90
20726;DHT22;10524;48.132;8.518;2023-02-18T12:05:44;19.70;99.90
20726;DHT22;10524;48.132;8.518;2023-02-18T12:08:19;19.50;99.90
20726;DHT22;10524;48.132;8.518;2023-02-18T12:10:53;20.20;99.90
20726;DHT22;10524;48.132;8.518;2023-02-18T12:13:37;19.60;99.90
20726;DHT22;10524;48.132;8.518;2023-02-18T12:16:13;20.30;99.90
20726;DHT22;10524;48.132;8.518;2023-02-18T12:21:29;19.50;99.90
20726;DHT22;10524;48.132;8.518;2023-02-18T12:27:13;15.80;99.90
20726;DHT22;10524;48.132;8.518;2023-02-18T12:38:12;14.30;99.90
20726;DHT22;10524;48.132;8.518;2023-02-18T12:41:04;14.20;99.90
20726;DHT22;10524;48.132;8.518;2023-02-18T12:55:30;12.50;99.90
20726;DHT22;10524;48.132;8.518;2023-02-18T13:09:50;13.10;99.90
20726;DHT22;10524;48.132;8.518;2023-02-18T13:12:30;13.10;99.90
20726;DHT22;10524;48.132;8.518;2023-02-18T13:15:21;13.10;99.90
20726;DHT22;10524;48.132;8.518;2023-02-18T13:17:49;13.00;99.90
20726;DHT22;10524;48.132;8.518;2023-02-18T13:20:29;13.30;99.90
20726;DHT22;10524;48.132;8.518;2023-02-18T13:22:57;13.30;99.90
20726;DHT22;10524;48.132;8.518;2023-02-18T13:25:24;13.50;99.90
20726;DHT22;10524;48.132;8.518;2023-02-18T13:28:01;13.30;99.90
20726;DHT22;10524;48.132;8.518;2023-02-18T13:33:43;13.70;99.90
20726;DHT22;10524;48.132;8.518;2023-02-18T13:39:07;13.80;99.90
20726;DHT22;10524;48.132;8.518;2023-02-18T13:41:39;13.80;99.90
20726;DHT22;10524;48.132;8.518;2023-02-18T13:46:56;13.10;99.90
20726;DHT22;10524;48.132;8.518;2023-02-18T13:49:33;13.40;99.90
20726;DHT22;10524;48.132;8.518;2023-02-18T13:52:00;13.50;99.90
20726;DHT22;10524;48.132;8.518;2023-02-18T13:54:42;13.70;99.90
20726;DHT22;10524;48.132;8.518;2023-02-18T13:57:36;13.70;99.90
20726;DHT22;10524;48.132;8.518;2023-02-18T14:00:04;13.40;99.90
20726;DHT22;10524;48.132;8.518;2023-02-18T14:02:35;13.20;99.90
20726;DHT22;10524;48.132;8.518;2023-02-18T14:26:04;13.30;99.90
20726;DHT22;10524;48.132;8.518;2023-02-18T14:33:39;12.80;99.90
20726;DHT22;10524;48.132;8.518;2023-02-18T14:41:47;12.50;99.90
20726;DHT22;10524;48.132;8.518;2023-02-18T14:44:41;12.30;99.90
20726;DHT22;10524;48.132;8.518;2023-02-18T14:48:08;12.20;99.90
20726;DHT22;10524;48.132;8.518;2023-02-18T14:50:11;12.40;99.90
20726;DHT22;10524;48.132;8.518;2023-02-18T14:52:47;12.30;99.90
20726;DHT22;10524;48.132;8.518;2023-02-18T14:58:07;12.10;99.90
20726;DHT22;10524;48.132;8.518;2023-02-18T15:00:41;12.20;99.90
20726;DHT22;10524;48.132;8.518;2023-02-18T15:03:15;12.00;99.90
20726;DHT22;10524;48.132;8.518;2023-02-18T15:05:42;12.00;99.90
20726;DHT22;10524;48.132;8.518;2023-02-18T15:08:23;12.00;99.90
20726;DHT22;10524;48.132;8.518;2023-02-18T15:10:57;12.00;99.90
20726;DHT22;10524;48.132;8.518;2023-02-18T15:13:32;12.00;99.90
20726;DHT22;10524;48.132;8.518;2023-02-18T15:16:06;12.20;99.90
20726;DHT22;10524;48.132;8.518;2023-02-18T15:18:36;12.10;99.90
20726;DHT22;10524;48.132;8.518;2023-02-18T15:21:07;12.20;99.90
20726;DHT22;10524;48.132;8.518;2023-02-18T15:23:37;12.10;99.90
20726;DHT22;10524;48.132;8.518;2023-02-18T15:26:05;12.10;99.90
20726;DHT22;10524;48.132;8.518;2023-02-18T15:28:41;12.20;99.90
20726;DHT22;10524;48.132;8.518;2023-02-18T15:31:09;12.20;99.90
20726;DHT22;10524;48.132;8.518;2023-02-18T15:33:41;12.10;99.90
20726;DHT22;10524;48.132;8.518;2023-02-18T15:36:12;11.90;99.90
20726;DHT22;10524;48.132;8.518;2023-02-18T15:38:38;11.70;99.90
20726;DHT22;10524;48.132;8.518;2023-02-18T15:41:13;11.70;99.90
20726;DHT22;10524;48.132;8.518;2023-02-18T15:43:59;11.50;99.90
20726;DHT22;10524;48.132;8.518;2023-02-18T15:46:26;11.40;99.90
20726;DHT22;10524;48.132;8.518;2023-02-18T15:48:53;11.30;99.90
20726;DHT22;10524;48.132;8.518;2023-02-18T15:51:24;11.20;99.90
20726;DHT22;10524;48.132;8.518;2023-02-18T15:53:53;11.20;99.90
20726;DHT22;10524;48.132;8.518;2023-02-18T15:56:49;11.10;99.90
20726;DHT22;10524;48.132;8.518;2023-02-18T16:01:51;10.90;99.90
20726;DHT22;10524;48.132;8.518;2023-02-18T16:04:20;10.80;99.90
20726;DHT22;10524;48.132;8.518;2023-02-18T16:06:52;10.70;99.90
20726;DHT22;10524;48.132;8.518;2023-02-18T16:09:19;10.60;99.90
20726;DHT22;10524;48.132;8.518;2023-02-18T16:11:58;10.60;99.90
20726;DHT22;10524;48.132;8.518;2023-02-18T16:14:33;10.50;99.90
20726;DHT22;10524;48.132;8.518;2023-02-18T16:17:07;10.30;99.90
20726;DHT22;10524;48.132;8.518;2023-02-18T16:19:42;10.10;99.90
20726;DHT22;10524;48.132;8.518;2023-02-18T16:27:52;9.70;99.90
20726;DHT22;10524;48.132;8.518;2023-02-18T16:30:24;9.50;99.90
20726;DHT22;10524;48.132;8.518;2023-02-18T16:32:52;9.40;99.90
20726;DHT22;10524;48.132;8.518;2023-02-18T16:35:20;9.40;99.90
20726;DHT22;10524;48.132;8.518;2023-02-18T16:37:46;9.30;99.90
20726;DHT22;10524;48.132;8.518;2023-02-18T16:40:35;9.20;99.90
20726;DHT22;10524;48.132;8.518;2023-02-18T16:43:09;9.10;99.90
20726;DHT22;10524;48.132;8.518;2023-02-18T16:45:38;9.00;99.90
20726;DHT22;10524;48.132;8.518;2023-02-18T16:48:05;8.90;99.90
20726;DHT22;10524;48.132;8.518;2023-02-18T16:50:32;8.70;99.90
20726;DHT22;10524;48.132;8.518;2023-02-18T16:52:59;8.50;99.90
20726;DHT22;10524;48.132;8.518;2023-02-18T16:55:27;8.40;99.90
20726;DHT22;10524;48.132;8.518;2023-02-18T16:57:54;8.30;99.90
20726;DHT22;10524;48.132;8.518;2023-02-18T17:00:20;8.30;99.90
20726;DHT22;10524;48.132;8.518;2023-02-18T17:02:53;8.20;99.90
20726;DHT22;10524;48.132;8.518;2023-02-18T17:05:23;8.00;99.90
20726;DHT22;10524;48.132;8.518;2023-02-18T17:07:49;7.80;99.90
20726;DHT22;10524;48.132;8.518;2023-02-18T17:10:15;7.70;99.90
20726;DHT22;10524;48.132;8.518;2023-02-18T17:12:41;7.60;99.90
20726;DHT22;10524;48.132;8.518;2023-02-18T17:17:47;7.60;99.90
20726;DHT22;10524;48.132;8.518;2023-02-18T17:20:13;7.70;99.90
20726;DHT22;10524;48.132;8.518;2023-02-18T17:22:40;7.80;99.90
20726;DHT22;10524;48.132;8.518;2023-02-18T17:25:13;7.90;99.90
20726;DHT22;10524;48.132;8.518;2023-02-18T17:27:39;7.80;99.90
20726;DHT22;10524;48.132;8.518;2023-02-18T17:30:05;7.80;99.90
20726;DHT22;10524;48.132;8.518;2023-02-18T17:32:31;7.80;99.90
20726;DHT22;10524;48.132;8.518;2023-02-18T17:34:57;7.70;99.90
20726;DHT22;10524;48.132;8.518;2023-02-18T17:37:23;7.60;99.90
20726;DHT22;10524;48.132;8.518;2023-02-18T17:39:48;7.60;99.90
20726;DHT22;10524;48.132;8.518;2023-02-18T17:42:14;7.50;99.90
20726;DHT22;10524;48.132;8.518;2023-02-18T17:44:39;7.40;99.90
20726;DHT22;10524;48.132;8.518;2023-02-18T17:47:05;7.40;99.90
20726;DHT22;10524;48.132;8.518;2023-02-18T17:49:31;7.40;99.90
20726;DHT22;10524;48.132;8.518;2023-02-18T17:51:57;7.40;99.90
20726;DHT22;10524;48.132;8.518;2023-02-18T17:54:22;7.30;99.90
20726;DHT22;10524;48.132;8.518;2023-02-18T17:56:48;7.40;99.90
20726;DHT22;10524;48.132;8.518;2023-02-18T17:59:14;7.40;99.90
20726;DHT22;10524;48.132;8.518;2023-02-18T18:01:40;7.30;99.90
20726;DHT22;10524;48.132;8.518;2023-02-18T18:04:15;7.30;99.90
20726;DHT22;10524;48.132;8.518;2023-02-18T18:06:42;7.40;99.90
20726;DHT22;10524;48.132;8.518;2023-02-18T18:09:08;7.40;99.90
20726;DHT22;10524;48.132;8.518;2023-02-18T18:11:34;7.40;99.90
20726;DHT22;10524;48.132;8.518;2023-02-18T18:14:00;7.20;99.90
20726;DHT22;10524;48.132;8.518;2023-02-18T18:16:26;7.10;99.90
20726;DHT22;10524;48.132;8.518;2023-02-18T18:18:51;7.20;99.90
20726;DHT22;10524;48.132;8.518;2023-02-18T18:21:22;7.20;99.90
20726;DHT22;10524;48.132;8.518;2023-02-18T18:23:48;7.20;99.90
20726;DHT22;10524;48.132;8.518;2023-02-18T18:26:15;7.20;99.90
20726;DHT22;10524;48.132;8.518;2023-02-18T18:28:41;7.10;99.90
20726;DHT22;10524;48.132;8.518;2023-02-18T18:31:15;7.20;99.90
20726;DHT22;10524;48.132;8.518;2023-02-18T18:33:43;7.10;99.90